sensor_id;sensor_type;location;lat;lon;timestamp;P1;durP1;ratioP1;P2;durP2;ratioP2
3101;SDS011;1561;42.666;23.392;2024-01-30T00:00:45;7.80;;;5.20;;
3101;SDS011;1561;42.666;23.392;2024-01-30T00:03:23;8.80;;;6.10;;
3101;SDS011;1561;42.666;23.392;2024-01-30T00:06:05;11.13;;;6.27;;
3101;SDS011;1561;42.666;23.392;2024-01-30T00:08:36;10.40;;;7.03;;
3101;SDS011;1561;42.666;23.392;2024-01-30T00:11:35;13.83;;;7.40;;
3101;SDS011;1561;42.666;23.392;2024-01-30T00:14:13;11.17;;;6.73;;
3101;SDS011;1561;42.666;23.392;2024-01-30T00:16:54;7.47;;;5.00;;
3101;SDS011;1561;42.666;23.392;2024-01-30T00:20:00;8.67;;;5.67;;
3101;SDS011;1561;42.666;23.392;2024-01-30T00:22:31;8.57;;;5.60;;
3101;SDS011;1561;42.666;23.392;2024-01-30T00:25:24;11.07;;;6.70;;
3101;SDS011;1561;42.666;23.392;2024-01-30T00:27:54;11.73;;;6.20;;
3101;SDS011;1561;42.666;23.392;2024-01-30T00:30:28;9.87;;;5.17;;
3101;SDS011;1561;42.666;23.392;2024-01-30T00:33:01;8.60;;;5.77;;
3101;SDS011;1561;42.666;23.392;2024-01-30T00:35:34;8.27;;;5.33;;
3101;SDS011;1561;42.666;23.392;2024-01-30T00:38:10;10.37;;;5.77;;
3101;SDS011;1561;42.666;23.392;2024-01-30T00:40:41;16.53;;;6.10;;
3101;SDS011;1561;42.666;23.392;2024-01-30T00:43:11;8.60;;;5.70;;
3101;SDS011;1561;42.666;23.392;2024-01-30T00:45:50;10.70;;;5.77;;
3101;SDS011;1561;42.666;23.392;2024-01-30T00:48:20;10.73;;;6.30;;
3101;SDS011;1561;42.666;23.392;2024-01-30T00:53:41;11.07;;;5.77;;
3101;SDS011;1561;42.666;23.392;2024-01-30T00:56:10;8.10;;;5.10;;
3101;SDS011;1561;42.666;23.392;2024-01-30T00:58:43;9.13;;;5.47;;
3101;SDS011;1561;42.666;23.392;2024-01-30T01:01:14;7.60;;;5.23;;
3101;SDS011;1561;42.666;23.392;2024-01-30T01:03:52;8.33;;;5.20;;
3101;SDS011;1561;42.666;23.392;2024-01-30T01:06:33;8.40;;;5.20;;
3101;SDS011;1561;42.666;23.392;2024-01-30T01:11:53;10.13;;;5.50;;
3101;SDS011;1561;42.666;23.392;2024-01-30T01:14:29;6.30;;;4.93;;
3101;SDS011;1561;42.666;23.392;2024-01-30T01:16:58;8.40;;;5.50;;
3101;SDS011;1561;42.666;23.392;2024-01-30T01:19:28;9.00;;;5.30;;
3101;SDS011;1561;42.666;23.392;2024-01-30T01:21:58;9.60;;;5.10;;
3101;SDS011;1561;42.666;23.392;2024-01-30T01:24:40;7.07;;;5.10;;
3101;SDS011;1561;42.666;23.392;2024-01-30T01:27:15;11.77;;;5.70;;
3101;SDS011;1561;42.666;23.392;2024-01-30T01:29:45;9.63;;;5.67;;
3101;SDS011;1561;42.666;23.392;2024-01-30T01:32:23;6.90;;;4.60;;
3101;SDS011;1561;42.666;23.392;2024-01-30T01:34:55;11.13;;;5.60;;
3101;SDS011;1561;42.666;23.392;2024-01-30T01:37:45;9.30;;;5.70;;
3101;SDS011;1561;42.666;23.392;2024-01-30T01:40:29;11.10;;;5.20;;
3101;SDS011;1561;42.666;23.392;2024-01-30T01:43:02;8.57;;;5.30;;
3101;SDS011;1561;42.666;23.392;2024-01-30T01:45:32;6.43;;;4.77;;
3101;SDS011;1561;42.666;23.392;2024-01-30T01:48:06;8.70;;;5.50;;
3101;SDS011;1561;42.666;23.392;2024-01-30T01:50:44;11.60;;;5.73;;
3101;SDS011;1561;42.666;23.392;2024-01-30T01:53:36;8.23;;;4.77;;
3101;SDS011;1561;42.666;23.392;2024-01-30T01:56:18;8.73;;;5.20;;
3101;SDS011;1561;42.666;23.392;2024-01-30T01:58:54;6.80;;;4.70;;
3101;SDS011;1561;42.666;23.392;2024-01-30T02:01:29;8.60;;;4.73;;
3101;SDS011;1561;42.666;23.392;2024-01-30T02:03:59;7.77;;;5.27;;
3101;SDS011;1561;42.666;23.392;2024-01-30T02:06:39;12.07;;;5.60;;
3101;SDS011;1561;42.666;23.392;2024-01-30T02:12:03;10.10;;;5.57;;
3101;SDS011;1561;42.666;23.392;2024-01-30T02:14:44;7.87;;;5.50;;
3101;SDS011;1561;42.666;23.392;2024-01-30T02:17:17;10.17;;;5.87;;
3101;SDS011;1561;42.666;23.392;2024-01-30T02:19:45;12.13;;;5.67;;
3101;SDS011;1561;42.666;23.392;2024-01-30T02:22:14;7.37;;;5.20;;
3101;SDS011;1561;42.666;23.392;2024-01-30T02:24:45;10.77;;;6.00;;
3101;SDS011;1561;42.666;23.392;2024-01-30T02:27:15;7.90;;;5.80;;
3101;SDS011;1561;42.666;23.392;2024-01-30T02:29:43;8.50;;;5.37;;
3101;SDS011;1561;42.666;23.392;2024-01-30T02:32:11;8.67;;;4.80;;
3101;SDS011;1561;42.666;23.392;2024-01-30T02:34:42;10.33;;;5.80;;
3101;SDS011;1561;42.666;23.392;2024-01-30T02:37:10;8.70;;;5.40;;
3101;SDS011;1561;42.666;23.392;2024-01-30T02:39:40;8.80;;;5.60;;
3101;SDS011;1561;42.666;23.392;2024-01-30T02:42:09;9.13;;;5.30;;
3101;SDS011;1561;42.666;23.392;2024-01-30T02:44:37;6.90;;;4.90;;
3101;SDS011;1561;42.666;23.392;2024-01-30T02:47:05;8.57;;;5.57;;
3101;SDS011;1561;42.666;23.392;2024-01-30T02:49:37;8.13;;;5.50;;
3101;SDS011;1561;42.666;23.392;2024-01-30T02:52:06;9.00;;;5.70;;
3101;SDS011;1561;42.666;23.392;2024-01-30T02:54:46;16.47;;;6.13;;
3101;SDS011;1561;42.666;23.392;2024-01-30T02:57:14;12.80;;;6.13;;
3101;SDS011;1561;42.666;23.392;2024-01-30T02:59:43;8.00;;;5.70;;
3101;SDS011;1561;42.666;23.392;2024-01-30T03:02:12;10.73;;;5.47;;
3101;SDS011;1561;42.666;23.392;2024-01-30T03:04:40;8.70;;;6.20;;
3101;SDS011;1561;42.666;23.392;2024-01-30T03:07:08;8.50;;;5.93;;
3101;SDS011;1561;42.666;23.392;2024-01-30T03:09:37;5.77;;;4.30;;
3101;SDS011;1561;42.666;23.392;2024-01-30T03:12:11;5.50;;;3.37;;
3101;SDS011;1561;42.666;23.392;2024-01-30T03:14:38;9.93;;;4.80;;
3101;SDS011;1561;42.666;23.392;2024-01-30T03:17:07;4.27;;;3.30;;
3101;SDS011;1561;42.666;23.392;2024-01-30T03:19:41;4.73;;;3.27;;
3101;SDS011;1561;42.666;23.392;2024-01-30T03:22:13;4.40;;;3.40;;
3101;SDS011;1561;42.666;23.392;2024-01-30T03:24:41;8.87;;;4.50;;
3101;SDS011;1561;42.666;23.392;2024-01-30T03:27:11;6.20;;;3.70;;
3101;SDS011;1561;42.666;23.392;2024-01-30T03:29:45;8.13;;;5.30;;
3101;SDS011;1561;42.666;23.392;2024-01-30T03:32:13;10.50;;;5.10;;
3101;SDS011;1561;42.666;23.392;2024-01-30T03:34:46;10.43;;;4.50;;
3101;SDS011;1561;42.666;23.392;2024-01-30T03:37:16;8.40;;;5.50;;
3101;SDS011;1561;42.666;23.392;2024-01-30T03:39:44;11.40;;;5.47;;
3101;SDS011;1561;42.666;23.392;2024-01-30T03:42:15;7.70;;;5.10;;
3101;SDS011;1561;42.666;23.392;2024-01-30T03:44:45;6.00;;;3.47;;
3101;SDS011;1561;42.666;23.392;2024-01-30T03:47:17;7.33;;;4.23;;
3101;SDS011;1561;42.666;23.392;2024-01-30T03:49:47;5.00;;;3.83;;
3101;SDS011;1561;42.666;23.392;2024-01-30T03:52:18;18.30;;;5.57;;
3101;SDS011;1561;42.666;23.392;2024-01-30T03:54:49;7.03;;;4.87;;
3101;SDS011;1561;42.666;23.392;2024-01-30T03:57:18;5.47;;;4.80;;
3101;SDS011;1561;42.666;23.392;2024-01-30T03:59:46;15.30;;;5.97;;
3101;SDS011;1561;42.666;23.392;2024-01-30T04:02:17;7.57;;;5.30;;
3101;SDS011;1561;42.666;23.392;2024-01-30T04:04:46;6.93;;;4.50;;
3101;SDS011;1561;42.666;23.392;2024-01-30T04:07:13;12.47;;;5.10;;
3101;SDS011;1561;42.666;23.392;2024-01-30T04:09:41;8.17;;;4.80;;
3101;SDS011;1561;42.666;23.392;2024-01-30T04:12:13;9.63;;;4.60;;
3101;SDS011;1561;42.666;23.392;2024-01-30T04:14:42;11.27;;;4.80;;
3101;SDS011;1561;42.666;23.392;2024-01-30T04:17:09;13.43;;;6.47;;
3101;SDS011;1561;42.666;23.392;2024-01-30T04:19:44;10.50;;;5.10;;
3101;SDS011;1561;42.666;23.392;2024-01-30T04:22:11;8.13;;;4.93;;
3101;SDS011;1561;42.666;23.392;2024-01-30T04:24:41;6.07;;;4.40;;
3101;SDS011;1561;42.666;23.392;2024-01-30T04:27:12;7.10;;;4.80;;
3101;SDS011;1561;42.666;23.392;2024-01-30T04:29:45;7.03;;;4.70;;
3101;SDS011;1561;42.666;23.392;2024-01-30T04:32:12;10.50;;;6.20;;
3101;SDS011;1561;42.666;23.392;2024-01-30T04:34:43;9.23;;;6.13;;
3101;SDS011;1561;42.666;23.392;2024-01-30T04:37:30;7.90;;;5.90;;
3101;SDS011;1561;42.666;23.392;2024-01-30T04:40:08;10.43;;;6.20;;
3101;SDS011;1561;42.666;23.392;2024-01-30T04:42:43;8.30;;;6.13;;
3101;SDS011;1561;42.666;23.392;2024-01-30T04:45:17;12.37;;;7.57;;
3101;SDS011;1561;42.666;23.392;2024-01-30T04:47:59;12.50;;;7.20;;
3101;SDS011;1561;42.666;23.392;2024-01-30T04:50:26;8.87;;;6.07;;
3101;SDS011;1561;42.666;23.392;2024-01-30T04:53:15;10.40;;;5.90;;
3101;SDS011;1561;42.666;23.392;2024-01-30T04:56:07;8.43;;;5.40;;
3101;SDS011;1561;42.666;23.392;2024-01-30T04:58:49;8.93;;;6.00;;
3101;SDS011;1561;42.666;23.392;2024-01-30T05:07:35;9.43;;;5.67;;
3101;SDS011;1561;42.666;23.392;2024-01-30T05:10:06;13.30;;;5.80;;
3101;SDS011;1561;42.666;23.392;2024-01-30T05:12:36;12.33;;;6.10;;
3101;SDS011;1561;42.666;23.392;2024-01-30T05:15:10;14.17;;;6.60;;
3101;SDS011;1561;42.666;23.392;2024-01-30T05:17:43;11.27;;;5.97;;
3101;SDS011;1561;42.666;23.392;2024-01-30T05:20:16;10.13;;;7.03;;
3101;SDS011;1561;42.666;23.392;2024-01-30T05:22:47;10.43;;;6.50;;
3101;SDS011;1561;42.666;23.392;2024-01-30T05:25:20;11.20;;;6.77;;
3101;SDS011;1561;42.666;23.392;2024-01-30T05:27:50;13.83;;;7.30;;
3101;SDS011;1561;42.666;23.392;2024-01-30T05:30:17;10.07;;;6.53;;
3101;SDS011;1561;42.666;23.392;2024-01-30T05:32:47;18.50;;;6.60;;
3101;SDS011;1561;42.666;23.392;2024-01-30T05:35:28;14.73;;;7.53;;
3101;SDS011;1561;42.666;23.392;2024-01-30T05:37:59;14.47;;;6.97;;
3101;SDS011;1561;42.666;23.392;2024-01-30T05:40:30;11.43;;;7.27;;
3101;SDS011;1561;42.666;23.392;2024-01-30T05:43:00;11.60;;;7.40;;
3101;SDS011;1561;42.666;23.392;2024-01-30T05:45:34;13.27;;;7.13;;
3101;SDS011;1561;42.666;23.392;2024-01-30T05:48:03;18.73;;;9.13;;
3101;SDS011;1561;42.666;23.392;2024-01-30T05:50:34;13.60;;;7.43;;
3101;SDS011;1561;42.666;23.392;2024-01-30T05:53:07;12.07;;;7.27;;
3101;SDS011;1561;42.666;23.392;2024-01-30T05:55:36;9.40;;;5.93;;
3101;SDS011;1561;42.666;23.392;2024-01-30T05:58:15;16.20;;;6.67;;
3101;SDS011;1561;42.666;23.392;2024-01-30T06:00:48;8.30;;;5.30;;
3101;SDS011;1561;42.666;23.392;2024-01-30T06:03:30;15.50;;;6.70;;
3101;SDS011;1561;42.666;23.392;2024-01-30T06:06:02;12.90;;;6.47;;
3101;SDS011;1561;42.666;23.392;2024-01-30T06:08:35;7.70;;;5.80;;
3101;SDS011;1561;42.666;23.392;2024-01-30T06:11:09;6.23;;;4.97;;
3101;SDS011;1561;42.666;23.392;2024-01-30T06:13:39;9.73;;;5.00;;
3101;SDS011;1561;42.666;23.392;2024-01-30T06:16:10;12.17;;;6.03;;
3101;SDS011;1561;42.666;23.392;2024-01-30T06:18:42;12.60;;;5.87;;
3101;SDS011;1561;42.666;23.392;2024-01-30T06:21:28;15.10;;;7.93;;
3101;SDS011;1561;42.666;23.392;2024-01-30T06:23:58;20.13;;;8.60;;
3101;SDS011;1561;42.666;23.392;2024-01-30T06:26:26;16.80;;;7.70;;
3101;SDS011;1561;42.666;23.392;2024-01-30T06:28:59;13.37;;;7.80;;
3101;SDS011;1561;42.666;23.392;2024-01-30T06:31:30;10.83;;;6.60;;
3101;SDS011;1561;42.666;23.392;2024-01-30T06:34:01;10.73;;;6.80;;
3101;SDS011;1561;42.666;23.392;2024-01-30T06:36:33;9.10;;;6.17;;
3101;SDS011;1561;42.666;23.392;2024-01-30T06:39:03;14.93;;;8.27;;
3101;SDS011;1561;42.666;23.392;2024-01-30T06:41:36;8.17;;;6.20;;
3101;SDS011;1561;42.666;23.392;2024-01-30T06:44:06;12.27;;;6.50;;
3101;SDS011;1561;42.666;23.392;2024-01-30T06:46:35;10.53;;;6.73;;
3101;SDS011;1561;42.666;23.392;2024-01-30T06:49:02;11.67;;;6.90;;
3101;SDS011;1561;42.666;23.392;2024-01-30T06:51:37;6.23;;;5.07;;
3101;SDS011;1561;42.666;23.392;2024-01-30T06:54:11;7.30;;;5.60;;
3101;SDS011;1561;42.666;23.392;2024-01-30T06:56:39;5.37;;;4.13;;
3101;SDS011;1561;42.666;23.392;2024-01-30T06:59:11;11.80;;;5.10;;
3101;SDS011;1561;42.666;23.392;2024-01-30T07:01:40;5.50;;;4.80;;
3101;SDS011;1561;42.666;23.392;2024-01-30T07:04:12;7.03;;;5.00;;
3101;SDS011;1561;42.666;23.392;2024-01-30T07:09:28;6.83;;;5.60;;
3101;SDS011;1561;42.666;23.392;2024-01-30T07:12:16;6.07;;;4.70;;
3101;SDS011;1561;42.666;23.392;2024-01-30T07:14:45;5.73;;;4.30;;
3101;SDS011;1561;42.666;23.392;2024-01-30T07:17:23;8.10;;;5.13;;
3101;SDS011;1561;42.666;23.392;2024-01-30T07:20:02;10.10;;;6.23;;
3101;SDS011;1561;42.666;23.392;2024-01-30T07:22:57;14.00;;;6.73;;
3101;SDS011;1561;42.666;23.392;2024-01-30T07:25:29;8.37;;;5.57;;
3101;SDS011;1561;42.666;23.392;2024-01-30T07:27:58;7.33;;;5.30;;
3101;SDS011;1561;42.666;23.392;2024-01-30T07:30:27;3.90;;;3.60;;
3101;SDS011;1561;42.666;23.392;2024-01-30T07:32:56;14.10;;;8.23;;
3101;SDS011;1561;42.666;23.392;2024-01-30T07:35:26;5.97;;;4.47;;
3101;SDS011;1561;42.666;23.392;2024-01-30T07:37:53;4.27;;;3.83;;
3101;SDS011;1561;42.666;23.392;2024-01-30T07:40:24;9.30;;;5.70;;
3101;SDS011;1561;42.666;23.392;2024-01-30T07:42:53;4.63;;;4.20;;
3101;SDS011;1561;42.666;23.392;2024-01-30T07:45:20;9.47;;;5.80;;
3101;SDS011;1561;42.666;23.392;2024-01-30T07:47:50;9.67;;;6.50;;
3101;SDS011;1561;42.666;23.392;2024-01-30T07:50:17;5.70;;;4.47;;
3101;SDS011;1561;42.666;23.392;2024-01-30T07:52:45;7.97;;;5.87;;
3101;SDS011;1561;42.666;23.392;2024-01-30T07:55:29;13.00;;;8.00;;
3101;SDS011;1561;42.666;23.392;2024-01-30T07:57:57;7.07;;;5.70;;
3101;SDS011;1561;42.666;23.392;2024-01-30T08:00:26;7.27;;;5.83;;
3101;SDS011;1561;42.666;23.392;2024-01-30T08:02:54;5.33;;;4.83;;
3101;SDS011;1561;42.666;23.392;2024-01-30T08:05:22;8.37;;;5.87;;
3101;SDS011;1561;42.666;23.392;2024-01-30T08:07:49;9.33;;;4.60;;
3101;SDS011;1561;42.666;23.392;2024-01-30T08:10:17;10.23;;;4.83;;
3101;SDS011;1561;42.666;23.392;2024-01-30T08:12:47;6.83;;;4.73;;
3101;SDS011;1561;42.666;23.392;2024-01-30T08:15:15;5.37;;;4.10;;
3101;SDS011;1561;42.666;23.392;2024-01-30T08:17:51;10.37;;;5.60;;
3101;SDS011;1561;42.666;23.392;2024-01-30T08:20:23;6.40;;;5.50;;
3101;SDS011;1561;42.666;23.392;2024-01-30T08:22:50;11.30;;;6.30;;
3101;SDS011;1561;42.666;23.392;2024-01-30T08:25:18;9.20;;;5.67;;
3101;SDS011;1561;42.666;23.392;2024-01-30T08:27:48;6.60;;;5.00;;
3101;SDS011;1561;42.666;23.392;2024-01-30T08:30:15;14.90;;;6.03;;
3101;SDS011;1561;42.666;23.392;2024-01-30T08:32:42;10.40;;;5.30;;
3101;SDS011;1561;42.666;23.392;2024-01-30T08:35:10;9.03;;;5.80;;
3101;SDS011;1561;42.666;23.392;2024-01-30T08:37:39;11.70;;;7.10;;
3101;SDS011;1561;42.666;23.392;2024-01-30T08:40:10;8.27;;;5.33;;
3101;SDS011;1561;42.666;23.392;2024-01-30T08:42:41;5.10;;;4.60;;
3101;SDS011;1561;42.666;23.392;2024-01-30T08:45:12;6.13;;;5.43;;
3101;SDS011;1561;42.666;23.392;2024-01-30T08:47:40;7.10;;;5.83;;
3101;SDS011;1561;42.666;23.392;2024-01-30T08:50:07;9.50;;;6.00;;
3101;SDS011;1561;42.666;23.392;2024-01-30T08:52:35;6.77;;;5.30;;
3101;SDS011;1561;42.666;23.392;2024-01-30T08:55:04;6.23;;;5.07;;
3101;SDS011;1561;42.666;23.392;2024-01-30T08:57:32;4.87;;;4.30;;
3101;SDS011;1561;42.666;23.392;2024-01-30T09:00:00;4.20;;;3.80;;
3101;SDS011;1561;42.666;23.392;2024-01-30T09:02:33;7.43;;;4.37;;
3101;SDS011;1561;42.666;23.392;2024-01-30T09:05:03;6.67;;;4.87;;
3101;SDS011;1561;42.666;23.392;2024-01-30T09:07:31;8.77;;;4.77;;
3101;SDS011;1561;42.666;23.392;2024-01-30T09:09:59;5.70;;;4.40;;
3101;SDS011;1561;42.666;23.392;2024-01-30T09:12:27;6.23;;;4.33;;
3101;SDS011;1561;42.666;23.392;2024-01-30T09:14:55;9.33;;;5.00;;
3101;SDS011;1561;42.666;23.392;2024-01-30T09:17:23;6.83;;;4.27;;
3101;SDS011;1561;42.666;23.392;2024-01-30T09:19:52;4.67;;;4.10;;
3101;SDS011;1561;42.666;23.392;2024-01-30T09:22:24;4.20;;;3.67;;
3101;SDS011;1561;42.666;23.392;2024-01-30T09:24:54;5.20;;;4.00;;
3101;SDS011;1561;42.666;23.392;2024-01-30T09:27:22;7.87;;;5.40;;
3101;SDS011;1561;42.666;23.392;2024-01-30T09:29:53;7.70;;;5.27;;
3101;SDS011;1561;42.666;23.392;2024-01-30T09:32:21;5.17;;;4.43;;
3101;SDS011;1561;42.666;23.392;2024-01-30T09:34:53;6.50;;;4.57;;
3101;SDS011;1561;42.666;23.392;2024-01-30T09:37:21;7.70;;;4.73;;
3101;SDS011;1561;42.666;23.392;2024-01-30T09:39:48;12.30;;;5.10;;
3101;SDS011;1561;42.666;23.392;2024-01-30T09:42:18;5.90;;;4.20;;
3101;SDS011;1561;42.666;23.392;2024-01-30T09:44:56;5.53;;;4.00;;
3101;SDS011;1561;42.666;23.392;2024-01-30T09:47:23;6.67;;;4.70;;
3101;SDS011;1561;42.666;23.392;2024-01-30T09:50:00;3.80;;;3.17;;
3101;SDS011;1561;42.666;23.392;2024-01-30T09:52:31;4.73;;;4.00;;
3101;SDS011;1561;42.666;23.392;2024-01-30T09:55:01;4.87;;;3.37;;
3101;SDS011;1561;42.666;23.392;2024-01-30T09:57:31;5.00;;;3.40;;
3101;SDS011;1561;42.666;23.392;2024-01-30T09:59:59;3.10;;;2.80;;
3101;SDS011;1561;42.666;23.392;2024-01-30T10:02:26;5.00;;;3.80;;
3101;SDS011;1561;42.666;23.392;2024-01-30T10:05:01;4.30;;;3.60;;
3101;SDS011;1561;42.666;23.392;2024-01-30T10:07:32;13.40;;;3.47;;
3101;SDS011;1561;42.666;23.392;2024-01-30T10:10:15;4.47;;;3.77;;
3101;SDS011;1561;42.666;23.392;2024-01-30T10:13:03;3.50;;;3.03;;
3101;SDS011;1561;42.666;23.392;2024-01-30T10:15:37;6.03;;;4.00;;
3101;SDS011;1561;42.666;23.392;2024-01-30T10:18:23;7.90;;;4.40;;
3101;SDS011;1561;42.666;23.392;2024-01-30T10:20:56;4.10;;;3.10;;
3101;SDS011;1561;42.666;23.392;2024-01-30T10:23:26;5.03;;;3.23;;
3101;SDS011;1561;42.666;23.392;2024-01-30T10:25:57;4.70;;;3.53;;
3101;SDS011;1561;42.666;23.392;2024-01-30T10:28:33;4.33;;;2.40;;
3101;SDS011;1561;42.666;23.392;2024-01-30T10:31:03;3.07;;;2.83;;
3101;SDS011;1561;42.666;23.392;2024-01-30T10:33:34;2.93;;;2.73;;
3101;SDS011;1561;42.666;23.392;2024-01-30T10:36:05;5.83;;;3.80;;
3101;SDS011;1561;42.666;23.392;2024-01-30T10:38:34;13.20;;;2.50;;
3101;SDS011;1561;42.666;23.392;2024-01-30T10:41:15;4.43;;;2.50;;
3101;SDS011;1561;42.666;23.392;2024-01-30T10:43:50;7.13;;;4.43;;
3101;SDS011;1561;42.666;23.392;2024-01-30T10:46:28;3.80;;;3.00;;
3101;SDS011;1561;42.666;23.392;2024-01-30T10:49:06;4.30;;;3.63;;
3101;SDS011;1561;42.666;23.392;2024-01-30T10:54:26;3.90;;;3.53;;
3101;SDS011;1561;42.666;23.392;2024-01-30T10:57:07;4.43;;;3.60;;
3101;SDS011;1561;42.666;23.392;2024-01-30T10:59:52;5.00;;;3.93;;
3101;SDS011;1561;42.666;23.392;2024-01-30T11:02:24;5.43;;;3.70;;
3101;SDS011;1561;42.666;23.392;2024-01-30T11:04:57;3.03;;;2.80;;
3101;SDS011;1561;42.666;23.392;2024-01-30T11:07:29;9.33;;;4.63;;
3101;SDS011;1561;42.666;23.392;2024-01-30T11:10:02;4.47;;;3.67;;
3101;SDS011;1561;42.666;23.392;2024-01-30T11:12:37;4.70;;;4.07;;
3101;SDS011;1561;42.666;23.392;2024-01-30T11:15:10;6.90;;;3.30;;
3101;SDS011;1561;42.666;23.392;2024-01-30T11:17:51;3.77;;;2.83;;
3101;SDS011;1561;42.666;23.392;2024-01-30T11:20:20;3.60;;;3.17;;
3101;SDS011;1561;42.666;23.392;2024-01-30T11:22:51;5.53;;;3.73;;
3101;SDS011;1561;42.666;23.392;2024-01-30T11:25:23;4.40;;;3.60;;
3101;SDS011;1561;42.666;23.392;2024-01-30T11:27:53;4.13;;;3.70;;
3101;SDS011;1561;42.666;23.392;2024-01-30T11:30:25;4.30;;;3.23;;
3101;SDS011;1561;42.666;23.392;2024-01-30T11:32:59;3.50;;;3.20;;
3101;SDS011;1561;42.666;23.392;2024-01-30T11:35:32;5.10;;;3.77;;
3101;SDS011;1561;42.666;23.392;2024-01-30T11:38:05;3.67;;;3.27;;
3101;SDS011;1561;42.666;23.392;2024-01-30T11:40:36;5.23;;;3.67;;
3101;SDS011;1561;42.666;23.392;2024-01-30T11:43:05;4.13;;;3.73;;
3101;SDS011;1561;42.666;23.392;2024-01-30T11:45:41;4.77;;;3.30;;
3101;SDS011;1561;42.666;23.392;2024-01-30T11:48:13;5.43;;;3.50;;
3101;SDS011;1561;42.666;23.392;2024-01-30T11:50:43;6.50;;;4.83;;
3101;SDS011;1561;42.666;23.392;2024-01-30T11:53:18;6.03;;;4.43;;
3101;SDS011;1561;42.666;23.392;2024-01-30T11:55:50;5.67;;;4.10;;
3101;SDS011;1561;42.666;23.392;2024-01-30T11:58:19;4.43;;;3.90;;
3101;SDS011;1561;42.666;23.392;2024-01-30T12:00:54;4.33;;;3.70;;
3101;SDS011;1561;42.666;23.392;2024-01-30T12:03:23;3.73;;;3.43;;
3101;SDS011;1561;42.666;23.392;2024-01-30T12:06:04;4.33;;;3.80;;
3101;SDS011;1561;42.666;23.392;2024-01-30T12:08:36;6.27;;;4.30;;
3101;SDS011;1561;42.666;23.392;2024-01-30T12:13:45;4.87;;;3.80;;
3101;SDS011;1561;42.666;23.392;2024-01-30T12:16:14;3.87;;;3.23;;
3101;SDS011;1561;42.666;23.392;2024-01-30T12:18:45;4.87;;;3.53;;
3101;SDS011;1561;42.666;23.392;2024-01-30T12:21:12;3.90;;;3.53;;
3101;SDS011;1561;42.666;23.392;2024-01-30T12:23:47;4.77;;;4.10;;
3101;SDS011;1561;42.666;23.392;2024-01-30T12:26:15;3.97;;;3.60;;
3101;SDS011;1561;42.666;23.392;2024-01-30T12:28:47;5.73;;;4.90;;
3101;SDS011;1561;42.666;23.392;2024-01-30T12:31:15;5.07;;;4.23;;
3101;SDS011;1561;42.666;23.392;2024-01-30T12:33:43;5.30;;;4.20;;
3101;SDS011;1561;42.666;23.392;2024-01-30T12:36:19;4.73;;;4.33;;
3101;SDS011;1561;42.666;23.392;2024-01-30T12:38:54;4.67;;;4.27;;
3101;SDS011;1561;42.666;23.392;2024-01-30T12:41:24;4.20;;;3.73;;
3101;SDS011;1561;42.666;23.392;2024-01-30T12:43:54;7.00;;;4.60;;
3101;SDS011;1561;42.666;23.392;2024-01-30T12:46:22;6.37;;;4.77;;
3101;SDS011;1561;42.666;23.392;2024-01-30T12:48:52;5.37;;;4.40;;
3101;SDS011;1561;42.666;23.392;2024-01-30T12:51:21;4.70;;;4.00;;
3101;SDS011;1561;42.666;23.392;2024-01-30T12:53:48;6.83;;;5.30;;
3101;SDS011;1561;42.666;23.392;2024-01-30T12:56:16;6.07;;;4.40;;
3101;SDS011;1561;42.666;23.392;2024-01-30T12:58:44;4.70;;;3.80;;
3101;SDS011;1561;42.666;23.392;2024-01-30T13:01:11;3.83;;;3.40;;
3101;SDS011;1561;42.666;23.392;2024-01-30T13:03:40;4.77;;;3.67;;
3101;SDS011;1561;42.666;23.392;2024-01-30T13:06:10;5.07;;;4.10;;
3101;SDS011;1561;42.666;23.392;2024-01-30T13:08:41;4.60;;;4.20;;
3101;SDS011;1561;42.666;23.392;2024-01-30T13:11:09;9.53;;;4.97;;
3101;SDS011;1561;42.666;23.392;2024-01-30T13:13:39;4.07;;;3.57;;
3101;SDS011;1561;42.666;23.392;2024-01-30T13:16:08;5.83;;;4.60;;
3101;SDS011;1561;42.666;23.392;2024-01-30T13:18:35;4.30;;;3.83;;
3101;SDS011;1561;42.666;23.392;2024-01-30T13:21:05;4.70;;;3.77;;
3101;SDS011;1561;42.666;23.392;2024-01-30T13:23:34;7.00;;;4.50;;
3101;SDS011;1561;42.666;23.392;2024-01-30T13:26:01;5.03;;;3.70;;
3101;SDS011;1561;42.666;23.392;2024-01-30T13:28:29;5.33;;;4.23;;
3101;SDS011;1561;42.666;23.392;2024-01-30T13:31:01;4.70;;;3.83;;
3101;SDS011;1561;42.666;23.392;2024-01-30T13:33:29;3.83;;;3.50;;
3101;SDS011;1561;42.666;23.392;2024-01-30T13:36:01;8.33;;;4.87;;
3101;SDS011;1561;42.666;23.392;2024-01-30T13:38:28;5.30;;;4.27;;
3101;SDS011;1561;42.666;23.392;2024-01-30T13:40:56;5.10;;;3.97;;
3101;SDS011;1561;42.666;23.392;2024-01-30T13:43:28;4.77;;;3.57;;
3101;SDS011;1561;42.666;23.392;2024-01-30T13:45:59;6.37;;;3.87;;
3101;SDS011;1561;42.666;23.392;2024-01-30T13:48:28;5.60;;;4.47;;
3101;SDS011;1561;42.666;23.392;2024-01-30T13:50:56;6.23;;;3.97;;
3101;SDS011;1561;42.666;23.392;2024-01-30T13:53:30;8.63;;;3.80;;
3101;SDS011;1561;42.666;23.392;2024-01-30T13:56:00;9.30;;;5.37;;
3101;SDS011;1561;42.666;23.392;2024-01-30T13:58:28;6.23;;;4.77;;
3101;SDS011;1561;42.666;23.392;2024-01-30T14:00:55;7.30;;;5.17;;
3101;SDS011;1561;42.666;23.392;2024-01-30T14:03:24;4.90;;;3.63;;
3101;SDS011;1561;42.666;23.392;2024-01-30T14:06:00;5.07;;;4.00;;
3101;SDS011;1561;42.666;23.392;2024-01-30T14:08:28;7.20;;;4.53;;
3101;SDS011;1561;42.666;23.392;2024-01-30T14:10:55;7.43;;;5.07;;
3101;SDS011;1561;42.666;23.392;2024-01-30T14:13:23;3.97;;;3.60;;
3101;SDS011;1561;42.666;23.392;2024-01-30T14:15:51;5.20;;;3.27;;
3101;SDS011;1561;42.666;23.392;2024-01-30T14:18:21;3.93;;;3.57;;
3101;SDS011;1561;42.666;23.392;2024-01-30T14:20:59;10.43;;;4.17;;
3101;SDS011;1561;42.666;23.392;2024-01-30T14:23:27;8.00;;;3.13;;
3101;SDS011;1561;42.666;23.392;2024-01-30T14:25:55;5.20;;;3.47;;
3101;SDS011;1561;42.666;23.392;2024-01-30T14:28:25;4.27;;;2.70;;
3101;SDS011;1561;42.666;23.392;2024-01-30T14:30:55;4.00;;;3.57;;
3101;SDS011;1561;42.666;23.392;2024-01-30T14:33:24;4.50;;;3.20;;
3101;SDS011;1561;42.666;23.392;2024-01-30T14:35:55;6.47;;;4.90;;
3101;SDS011;1561;42.666;23.392;2024-01-30T14:38:23;5.17;;;3.87;;
3101;SDS011;1561;42.666;23.392;2024-01-30T14:40:54;4.73;;;3.40;;
3101;SDS011;1561;42.666;23.392;2024-01-30T14:43:23;3.60;;;3.13;;
3101;SDS011;1561;42.666;23.392;2024-01-30T14:45:51;3.70;;;3.40;;
3101;SDS011;1561;42.666;23.392;2024-01-30T14:48:18;5.30;;;3.40;;
3101;SDS011;1561;42.666;23.392;2024-01-30T14:50:45;4.67;;;2.90;;
3101;SDS011;1561;42.666;23.392;2024-01-30T14:53:15;7.10;;;4.50;;
3101;SDS011;1561;42.666;23.392;2024-01-30T14:55:43;5.30;;;4.50;;
3101;SDS011;1561;42.666;23.392;2024-01-30T14:58:11;3.77;;;3.47;;
3101;SDS011;1561;42.666;23.392;2024-01-30T15:00:39;3.83;;;3.40;;
3101;SDS011;1561;42.666;23.392;2024-01-30T15:03:08;6.10;;;4.30;;
3101;SDS011;1561;42.666;23.392;2024-01-30T15:05:35;4.97;;;3.53;;
3101;SDS011;1561;42.666;23.392;2024-01-30T15:08:02;6.67;;;5.00;;
3101;SDS011;1561;42.666;23.392;2024-01-30T15:10:31;8.23;;;4.20;;
3101;SDS011;1561;42.666;23.392;2024-01-30T15:13:01;4.93;;;4.40;;
3101;SDS011;1561;42.666;23.392;2024-01-30T15:15:37;7.03;;;4.40;;
3101;SDS011;1561;42.666;23.392;2024-01-30T15:18:05;6.70;;;4.30;;
3101;SDS011;1561;42.666;23.392;2024-01-30T15:20:32;7.13;;;5.30;;
3101;SDS011;1561;42.666;23.392;2024-01-30T15:23:00;10.27;;;5.20;;
3101;SDS011;1561;42.666;23.392;2024-01-30T15:25:27;8.23;;;5.90;;
3101;SDS011;1561;42.666;23.392;2024-01-30T15:27:57;7.10;;;4.03;;
3101;SDS011;1561;42.666;23.392;2024-01-30T15:30:26;9.77;;;5.47;;
3101;SDS011;1561;42.666;23.392;2024-01-30T15:32:56;5.23;;;4.37;;
3101;SDS011;1561;42.666;23.392;2024-01-30T15:35:25;9.53;;;5.37;;
3101;SDS011;1561;42.666;23.392;2024-01-30T15:37:53;6.13;;;4.07;;
3101;SDS011;1561;42.666;23.392;2024-01-30T15:40:20;6.60;;;4.53;;
3101;SDS011;1561;42.666;23.392;2024-01-30T15:42:48;7.50;;;4.57;;
3101;SDS011;1561;42.666;23.392;2024-01-30T15:45:17;6.77;;;4.17;;
3101;SDS011;1561;42.666;23.392;2024-01-30T15:47:46;9.40;;;5.30;;